createdAt,value
2018-07-20T00:04:49.615Z,19.25
2018-07-20T00:09:53.376Z,21.00
2018-07-20T00:14:57.114Z,17.40
2018-07-20T00:20:00.999Z,19.60
2018-07-20T00:25:12.522Z,17.50
2018-07-20T00:30:16.327Z,17.40
2018-07-20T00:35:20.078Z,19.00
2018-07-20T00:40:23.805Z,20.40
2018-07-20T00:45:27.470Z,21.00
2018-07-20T00:50:31.227Z,16.50
2018-07-20T00:55:35.070Z,18.20
2018-07-20T01:00:38.809Z,21.60
2018-07-20T01:05:42.532Z,20.80
2018-07-20T01:10:46.374Z,19.50
2018-07-20T01:15:50.090Z,20.00
2018-07-20T01:20:54.282Z,19.40
2018-07-20T01:25:58.015Z,20.40
2018-07-20T01:31:01.711Z,18.40
2018-07-20T01:36:05.481Z,23.60
2018-07-20T01:41:09.811Z,20.00
2018-07-20T01:46:13.487Z,17.20
2018-07-20T01:51:17.227Z,16.50
2018-07-20T01:56:20.973Z,19.80
2018-07-20T02:01:24.703Z,18.50
2018-07-20T02:06:28.403Z,20.75
2018-07-20T02:11:32.110Z,18.50
2018-07-20T02:16:35.920Z,19.60
2018-07-20T02:21:40.571Z,17.80
2018-07-20T02:26:44.326Z,18.25
2018-07-20T02:31:48.030Z,20.25
2018-07-20T02:36:51.695Z,19.40
2018-07-20T02:41:55.369Z,19.75
2018-07-20T02:46:59.055Z,19.25
2018-07-20T02:52:02.835Z,18.20
2018-07-20T02:57:06.642Z,17.50
2018-07-20T03:02:10.370Z,23.00
2018-07-20T03:07:14.148Z,19.25
2018-07-20T03:12:17.902Z,20.20
2018-07-20T03:17:21.571Z,20.00
2018-07-20T03:22:25.423Z,18.25
2018-07-20T03:27:29.187Z,19.25
2018-07-20T03:32:32.860Z,21.40
2018-07-20T03:37:36.643Z,19.40
2018-07-20T03:42:40.700Z,22.00
2018-07-20T03:47:44.394Z,25.50
2018-07-20T03:52:48.071Z,22.20
2018-07-20T03:57:51.786Z,21.00
2018-07-20T04:02:55.467Z,18.50
2018-07-20T04:07:59.178Z,20.00
2018-07-20T04:13:02.980Z,23.00
2018-07-20T04:18:06.918Z,26.00
2018-07-20T04:23:10.640Z,26.25
2018-07-20T04:28:14.323Z,26.00
2018-07-20T04:33:18.018Z,23.50
2018-07-20T04:38:21.731Z,23.40
2018-07-20T04:43:25.392Z,27.25
2018-07-20T04:48:29.589Z,27.80
2018-07-20T04:53:33.326Z,26.75
2018-07-20T04:58:37.009Z,27.60
2018-07-20T05:03:40.824Z,29.20
2018-07-20T05:08:44.486Z,32.50
2018-07-20T05:13:48.170Z,26.25
2018-07-20T05:18:51.872Z,27.20
2018-07-20T05:23:55.586Z,28.75
2018-07-20T05:28:59.238Z,26.50
2018-07-20T05:34:02.935Z,27.40
2018-07-20T05:39:08.766Z,22.00
2018-07-20T05:44:12.457Z,27.75
2018-07-20T05:49:16.143Z,24.50
2018-07-20T05:54:19.838Z,23.80
2018-07-20T05:59:23.590Z,22.00
2018-07-20T06:04:27.577Z,24.40
2018-07-20T06:09:31.253Z,24.00
2018-07-20T06:14:34.898Z,22.80
2018-07-20T06:19:38.641Z,24.25
2018-07-20T06:24:42.847Z,22.00
2018-07-20T06:29:46.530Z,22.25
2018-07-20T06:34:50.202Z,21.20
2018-07-20T06:39:53.894Z,16.80
2018-07-20T06:44:57.615Z,16.50
2018-07-20T06:50:03.658Z,19.20
2018-07-20T06:55:07.424Z,16.60
2018-07-20T07:00:11.439Z,17.20
2018-07-20T07:05:15.167Z,15.50
2018-07-20T07:10:18.905Z,17.40
2018-07-20T07:15:22.526Z,18.20
2018-07-20T07:20:26.264Z,18.40
2018-07-20T07:25:30.018Z,20.40
2018-07-20T07:30:35.031Z,13.60
2018-07-20T07:35:38.758Z,14.00
2018-07-20T07:40:42.505Z,13.75
2018-07-20T07:45:47.250Z,12.75
2018-07-20T07:50:52.268Z,15.40
2018-07-20T07:55:56.809Z,15.00
2018-07-20T08:01:01.352Z,13.00
2018-07-20T08:06:05.000Z,12.80
2018-07-20T08:11:08.789Z,11.00
2018-07-20T08:16:12.507Z,11.75
2018-07-20T08:21:17.157Z,11.75
2018-07-20T08:26:20.877Z,13.00
2018-07-20T08:31:24.827Z,13.00
2018-07-20T08:36:28.557Z,11.75
2018-07-20T08:41:33.221Z,9.00
2018-07-20T08:46:37.025Z,11.20
2018-07-20T08:51:40.626Z,14.00
2018-07-20T08:56:44.366Z,10.25
2018-07-20T09:01:49.121Z,10.50
2018-07-20T09:06:52.907Z,12.75
2018-07-20T09:11:56.675Z,10.50
2018-07-20T09:17:00.351Z,13.00
2018-07-20T09:22:04.444Z,11.40
2018-07-20T09:27:08.118Z,9.25
2018-07-20T09:32:11.817Z,10.40
2018-07-20T09:37:15.455Z,10.25
2018-07-20T09:42:19.197Z,8.75
2018-07-20T09:47:22.998Z,12.20
2018-07-20T09:52:26.793Z,11.20
2018-07-20T09:57:30.558Z,11.50
2018-07-20T10:02:34.331Z,9.00
2018-07-20T10:07:38.095Z,11.00
2018-07-20T10:12:41.960Z,12.60
2018-07-20T10:17:45.551Z,9.40
2018-07-20T10:22:49.189Z,13.00
2018-07-20T10:27:52.959Z,12.40
2018-07-20T10:32:56.670Z,9.75
2018-07-20T10:38:00.362Z,10.50
2018-07-20T10:43:04.069Z,11.25
2018-07-20T10:48:07.810Z,13.00
2018-07-20T10:53:11.475Z,14.25
2018-07-20T10:58:15.246Z,10.00
2018-07-20T11:03:19.065Z,10.40
2018-07-20T11:08:22.709Z,11.60
2018-07-20T11:13:26.748Z,8.25
2018-07-20T11:18:30.465Z,11.50
2018-07-20T11:23:34.200Z,14.50
2018-07-20T11:28:38.142Z,13.00
2018-07-20T11:33:41.874Z,12.00
2018-07-20T11:38:45.559Z,12.25
2018-07-20T11:43:49.279Z,9.80
2018-07-20T11:48:52.941Z,11.20
2018-07-20T11:53:56.687Z,9.00
2018-07-20T11:59:00.431Z,9.25
2018-07-20T12:04:04.051Z,11.20
2018-07-20T12:09:10.126Z,10.00
2018-07-20T12:14:13.817Z,10.20
2018-07-20T12:19:17.500Z,10.00
2018-07-20T12:24:21.329Z,13.20
2018-07-20T12:29:25.145Z,11.40
2018-07-20T12:34:28.857Z,13.00
2018-07-20T12:39:32.579Z,11.50
2018-07-20T12:44:36.334Z,11.50
2018-07-20T12:49:40.026Z,11.60
2018-07-20T12:54:43.767Z,9.75
2018-07-20T12:59:47.887Z,9.25
2018-07-20T13:04:51.814Z,9.75
2018-07-20T13:09:55.552Z,10.00
2018-07-20T13:14:59.248Z,10.40
2018-07-20T13:20:06.552Z,10.60
2018-07-20T13:25:11.646Z,11.00
2018-07-20T13:30:15.611Z,11.00
2018-07-20T13:35:19.351Z,11.20
2018-07-20T13:40:23.232Z,9.40
2018-07-20T13:45:27.562Z,9.40
2018-07-20T13:50:31.331Z,8.25
2018-07-20T13:55:35.218Z,11.00
2018-07-20T14:00:38.954Z,10.25
2018-07-20T14:05:42.871Z,12.60
2018-07-20T14:10:46.655Z,10.20
2018-07-20T14:15:50.418Z,8.75
2018-07-20T14:20:54.331Z,10.00
2018-07-20T14:25:58.346Z,12.80
2018-07-20T14:31:02.169Z,10.00
2018-07-20T14:36:06.058Z,8.75
2018-07-20T14:41:09.890Z,9.00
2018-07-20T14:46:14.239Z,12.00
2018-07-20T14:51:18.006Z,12.20
2018-07-20T14:56:21.727Z,13.00
2018-07-20T15:01:25.751Z,11.00
2018-07-20T15:06:29.483Z,10.50
2018-07-20T15:11:33.174Z,8.00
2018-07-20T15:16:36.919Z,9.80
2018-07-20T15:21:40.631Z,8.00
2018-07-20T15:26:44.322Z,10.00
2018-07-20T15:31:48.049Z,10.00
2018-07-20T15:36:51.907Z,10.25
2018-07-20T15:41:56.807Z,9.40
2018-07-20T15:47:00.899Z,9.00
2018-07-20T15:57:08.463Z,10.75
2018-07-20T16:02:13.593Z,9.00
2018-07-20T16:07:17.289Z,9.00
2018-07-20T16:12:21.248Z,9.75
2018-07-20T16:17:25.272Z,13.20
2018-07-20T16:22:29.238Z,7.60
2018-07-20T16:27:33.464Z,7.40
2018-07-20T16:32:37.515Z,8.80
2018-07-20T16:37:41.419Z,7.40
2018-07-20T16:42:46.278Z,8.80
2018-07-20T16:47:50.196Z,9.75
2018-07-20T16:52:54.037Z,9.60
2018-07-20T16:57:57.762Z,9.00
2018-07-20T17:03:02.477Z,9.00
2018-07-20T17:08:06.217Z,11.00
2018-07-20T17:13:10.031Z,8.20
2018-07-20T17:18:13.747Z,11.20
2018-07-20T17:23:17.497Z,9.75
2018-07-20T17:28:21.153Z,10.40
2018-07-20T17:33:24.781Z,12.60
2018-07-20T17:38:28.548Z,10.75
2018-07-20T17:43:32.471Z,10.50
2018-07-20T17:48:36.401Z,11.60
2018-07-20T17:53:40.486Z,11.25
2018-07-20T17:58:44.567Z,10.50
2018-07-20T18:03:48.541Z,11.40
2018-07-20T18:08:52.520Z,11.50
2018-07-20T18:13:56.321Z,10.00
2018-07-20T18:19:01.205Z,12.20
2018-07-20T18:24:06.049Z,10.20
2018-07-20T18:29:10.433Z,11.75
2018-07-20T18:34:15.389Z,12.00
2018-07-20T18:39:20.554Z,12.50
2018-07-20T18:44:25.430Z,13.25
2018-07-20T18:49:30.305Z,12.75
2018-07-20T18:54:35.149Z,11.80
2018-07-20T18:59:40.347Z,9.80
2018-07-20T19:04:44.921Z,8.60
2018-07-20T19:09:49.249Z,11.25
2018-07-20T19:14:54.230Z,12.00
2018-07-20T19:19:59.146Z,10.40
2018-07-20T19:25:06.684Z,13.50
2018-07-20T19:30:11.898Z,10.60
2018-07-20T19:35:16.617Z,12.00
2018-07-20T19:40:21.490Z,10.40
2018-07-20T19:45:25.659Z,13.25
2018-07-20T19:50:29.441Z,13.60
2018-07-20T19:55:33.265Z,15.75
2018-07-20T20:00:37.923Z,12.25
2018-07-20T20:05:41.742Z,13.60
2018-07-20T20:10:45.514Z,14.60
2018-07-20T20:15:49.805Z,14.75
2018-07-20T20:20:54.923Z,15.00
2018-07-20T20:25:58.924Z,18.20
2018-07-20T20:31:03.335Z,17.00
2018-07-20T20:36:07.363Z,14.60
2018-07-20T20:41:12.053Z,14.60
2018-07-20T20:46:16.348Z,18.00
2018-07-20T20:51:20.294Z,16.00
2018-07-20T20:56:24.246Z,19.75
2018-07-20T21:01:27.999Z,20.50
2018-07-20T21:06:31.752Z,18.40
2018-07-20T21:11:35.612Z,16.25
2018-07-20T21:16:39.439Z,17.75
2018-07-20T21:21:43.154Z,19.50
2018-07-20T21:26:46.997Z,19.00
2018-07-20T21:31:50.760Z,16.40
2018-07-20T21:36:55.293Z,18.25
2018-07-20T21:41:59.430Z,16.60
2018-07-20T21:47:03.531Z,15.20
2018-07-20T21:52:08.038Z,18.00
2018-07-20T21:57:11.817Z,16.00
2018-07-20T22:02:15.846Z,16.75
2018-07-20T22:07:19.602Z,15.60
2018-07-20T22:12:23.706Z,17.75
2018-07-20T22:17:27.570Z,17.00
2018-07-20T22:22:31.386Z,19.25
2018-07-20T22:27:35.349Z,17.75
2018-07-20T22:32:39.288Z,17.00
2018-07-20T22:37:43.239Z,16.20
2018-07-20T22:42:46.987Z,17.60
2018-07-20T22:47:50.687Z,18.40
2018-07-20T22:52:55.190Z,19.00
2018-07-20T22:57:58.947Z,15.20
2018-07-20T23:03:02.649Z,14.80
2018-07-20T23:08:06.407Z,16.25
2018-07-20T23:13:10.032Z,17.00
2018-07-20T23:18:13.927Z,17.20
2018-07-20T23:23:17.735Z,15.50
2018-07-20T23:28:21.467Z,18.00
2018-07-20T23:33:25.210Z,17.80
2018-07-20T23:38:29.331Z,25.25
2018-07-20T23:43:34.304Z,20.25
2018-07-20T23:48:38.749Z,20.25
2018-07-20T23:53:42.414Z,19.25
2018-07-20T23:58:46.471Z,21.00
